sensor_id;sensor_type;location;lat;lon;timestamp;temperature;humidity
17687;DHT22;8962;52.538;13.266;2023-11-21T00:00:54;7.50;99.90
17687;DHT22;8962;52.538;13.266;2023-11-21T00:14:49;7.40;99.90
17687;DHT22;8962;52.538;13.266;2023-11-21T00:24:45;7.00;99.90
17687;DHT22;8962;52.538;13.266;2023-11-21T00:27:12;6.90;99.90
17687;DHT22;8962;52.538;13.266;2023-11-21T00:29:42;6.90;99.90
17687;DHT22;8962;52.538;13.266;2023-11-21T00:32:10;6.90;99.90
17687;DHT22;8962;52.538;13.266;2023-11-21T00:34:37;6.90;99.90
17687;DHT22;8962;52.538;13.266;2023-11-21T00:37:05;6.90;99.90
17687;DHT22;8962;52.538;13.266;2023-11-21T00:39:33;6.80;99.90
17687;DHT22;8962;52.538;13.266;2023-11-21T00:42:01;6.80;99.90
17687;DHT22;8962;52.538;13.266;2023-11-21T00:44:28;6.80;99.90
17687;DHT22;8962;52.538;13.266;2023-11-21T00:46:55;6.80;99.90
17687;DHT22;8962;52.538;13.266;2023-11-21T00:49:23;6.80;99.90
17687;DHT22;8962;52.538;13.266;2023-11-21T00:51:50;6.80;99.90
17687;DHT22;8962;52.538;13.266;2023-11-21T00:54:17;6.80;99.90
17687;DHT22;8962;52.538;13.266;2023-11-21T00:56:44;6.80;99.90
17687;DHT22;8962;52.538;13.266;2023-11-21T00:59:13;6.90;99.90
17687;DHT22;8962;52.538;13.266;2023-11-21T01:01:41;6.80;99.90
17687;DHT22;8962;52.538;13.266;2023-11-21T01:04:09;6.80;99.90
17687;DHT22;8962;52.538;13.266;2023-11-21T01:06:39;6.70;99.90
17687;DHT22;8962;52.538;13.266;2023-11-21T01:09:08;6.70;99.90
17687;DHT22;8962;52.538;13.266;2023-11-21T01:11:36;6.70;99.90
17687;DHT22;8962;52.538;13.266;2023-11-21T01:14:04;6.70;99.90
17687;DHT22;8962;52.538;13.266;2023-11-21T01:16:32;6.70;99.90
17687;DHT22;8962;52.538;13.266;2023-11-21T01:18:59;6.60;99.90
17687;DHT22;8962;52.538;13.266;2023-11-21T01:21:29;6.60;99.90
17687;DHT22;8962;52.538;13.266;2023-11-21T01:23:58;6.60;99.90
17687;DHT22;8962;52.538;13.266;2023-11-21T01:26:25;6.60;99.90
17687;DHT22;8962;52.538;13.266;2023-11-21T01:28:52;6.60;99.90
17687;DHT22;8962;52.538;13.266;2023-11-21T01:31:20;6.50;99.90
17687;DHT22;8962;52.538;13.266;2023-11-21T01:33:47;6.50;99.90
17687;DHT22;8962;52.538;13.266;2023-11-21T01:36:14;6.50;99.90
17687;DHT22;8962;52.538;13.266;2023-11-21T01:38:41;6.50;99.90
17687;DHT22;8962;52.538;13.266;2023-11-21T01:41:09;6.50;99.90
17687;DHT22;8962;52.538;13.266;2023-11-21T01:43:37;6.50;99.90
17687;DHT22;8962;52.538;13.266;2023-11-21T01:46:04;6.50;99.90
17687;DHT22;8962;52.538;13.266;2023-11-21T01:48:33;6.40;99.90
17687;DHT22;8962;52.538;13.266;2023-11-21T01:51:01;6.40;99.90
17687;DHT22;8962;52.538;13.266;2023-11-21T01:53:28;6.40;99.90
17687;DHT22;8962;52.538;13.266;2023-11-21T01:55:55;6.40;99.90
17687;DHT22;8962;52.538;13.266;2023-11-21T01:58:25;6.40;99.90
17687;DHT22;8962;52.538;13.266;2023-11-21T02:00:52;6.40;99.90
17687;DHT22;8962;52.538;13.266;2023-11-21T02:03:20;6.50;99.90
17687;DHT22;8962;52.538;13.266;2023-11-21T02:05:48;6.40;99.90
17687;DHT22;8962;52.538;13.266;2023-11-21T02:08:15;6.40;99.90
17687;DHT22;8962;52.538;13.266;2023-11-21T02:10:43;6.30;99.90
17687;DHT22;8962;52.538;13.266;2023-11-21T02:13:10;6.20;99.90
17687;DHT22;8962;52.538;13.266;2023-11-21T02:15:39;6.20;99.90
17687;DHT22;8962;52.538;13.266;2023-11-21T02:18:06;6.20;99.90
17687;DHT22;8962;52.538;13.266;2023-11-21T02:20:35;6.20;99.90
17687;DHT22;8962;52.538;13.266;2023-11-21T02:23:06;6.20;99.90
17687;DHT22;8962;52.538;13.266;2023-11-21T02:25:33;6.20;99.90
17687;DHT22;8962;52.538;13.266;2023-11-21T02:28:03;6.20;99.90
17687;DHT22;8962;52.538;13.266;2023-11-21T02:30:32;6.20;99.90
17687;DHT22;8962;52.538;13.266;2023-11-21T02:32:59;6.30;99.90
17687;DHT22;8962;52.538;13.266;2023-11-21T02:35:27;6.20;99.90
17687;DHT22;8962;52.538;13.266;2023-11-21T02:37:57;6.20;99.90
17687;DHT22;8962;52.538;13.266;2023-11-21T02:40:25;6.30;99.90
17687;DHT22;8962;52.538;13.266;2023-11-21T02:42:53;6.20;99.90
17687;DHT22;8962;52.538;13.266;2023-11-21T02:45:20;6.20;99.90
17687;DHT22;8962;52.538;13.266;2023-11-21T02:47:48;6.10;99.90
17687;DHT22;8962;52.538;13.266;2023-11-21T02:50:16;6.10;99.90
17687;DHT22;8962;52.538;13.266;2023-11-21T02:52:46;6.10;99.90
17687;DHT22;8962;52.538;13.266;2023-11-21T02:55:13;6.10;99.90
17687;DHT22;8962;52.538;13.266;2023-11-21T02:57:43;6.10;99.90
17687;DHT22;8962;52.538;13.266;2023-11-21T03:00:10;6.10;99.90
17687;DHT22;8962;52.538;13.266;2023-11-21T03:02:38;6.00;99.90
17687;DHT22;8962;52.538;13.266;2023-11-21T03:05:06;5.90;99.90
17687;DHT22;8962;52.538;13.266;2023-11-21T03:07:36;5.80;99.90
17687;DHT22;8962;52.538;13.266;2023-11-21T03:10:03;5.80;99.90
17687;DHT22;8962;52.538;13.266;2023-11-21T03:12:31;5.80;99.90
17687;DHT22;8962;52.538;13.266;2023-11-21T03:15:01;5.90;99.90
17687;DHT22;8962;52.538;13.266;2023-11-21T03:17:28;5.80;99.90
17687;DHT22;8962;52.538;13.266;2023-11-21T03:19:55;5.90;99.90
17687;DHT22;8962;52.538;13.266;2023-11-21T03:22:23;6.00;99.90
17687;DHT22;8962;52.538;13.266;2023-11-21T03:24:50;6.00;99.90
17687;DHT22;8962;52.538;13.266;2023-11-21T03:27:17;6.00;99.90
17687;DHT22;8962;52.538;13.266;2023-11-21T03:29:44;6.00;99.90
17687;DHT22;8962;52.538;13.266;2023-11-21T03:32:13;5.90;99.90
17687;DHT22;8962;52.538;13.266;2023-11-21T03:34:53;5.90;99.90
17687;DHT22;8962;52.538;13.266;2023-11-21T03:37:22;5.90;99.90
17687;DHT22;8962;52.538;13.266;2023-11-21T03:39:49;6.00;99.90
17687;DHT22;8962;52.538;13.266;2023-11-21T03:42:16;5.90;99.90
17687;DHT22;8962;52.538;13.266;2023-11-21T03:44:43;5.90;99.90
17687;DHT22;8962;52.538;13.266;2023-11-21T03:47:10;5.90;99.90
17687;DHT22;8962;52.538;13.266;2023-11-21T03:49:39;6.00;99.90
17687;DHT22;8962;52.538;13.266;2023-11-21T03:52:06;5.90;99.90
17687;DHT22;8962;52.538;13.266;2023-11-21T03:54:33;6.00;99.90
17687;DHT22;8962;52.538;13.266;2023-11-21T03:57:01;6.00;99.90
17687;DHT22;8962;52.538;13.266;2023-11-21T03:59:29;5.90;99.90
17687;DHT22;8962;52.538;13.266;2023-11-21T04:01:57;5.90;99.90
17687;DHT22;8962;52.538;13.266;2023-11-21T04:04:24;5.80;99.90
17687;DHT22;8962;52.538;13.266;2023-11-21T04:06:53;5.90;99.90
17687;DHT22;8962;52.538;13.266;2023-11-21T04:09:20;5.90;99.90
17687;DHT22;8962;52.538;13.266;2023-11-21T04:11:51;5.90;99.90
17687;DHT22;8962;52.538;13.266;2023-11-21T04:14:18;5.90;99.90
17687;DHT22;8962;52.538;13.266;2023-11-21T04:16:45;5.80;99.90
17687;DHT22;8962;52.538;13.266;2023-11-21T04:19:12;5.80;99.90
17687;DHT22;8962;52.538;13.266;2023-11-21T04:21:41;5.90;99.90
17687;DHT22;8962;52.538;13.266;2023-11-21T04:24:10;5.90;99.90
17687;DHT22;8962;52.538;13.266;2023-11-21T04:26:38;5.90;99.90
17687;DHT22;8962;52.538;13.266;2023-11-21T04:29:05;5.90;99.90
17687;DHT22;8962;52.538;13.266;2023-11-21T04:31:33;5.90;99.90
17687;DHT22;8962;52.538;13.266;2023-11-21T04:34:00;5.80;99.90
17687;DHT22;8962;52.538;13.266;2023-11-21T04:36:29;5.90;99.90
17687;DHT22;8962;52.538;13.266;2023-11-21T04:38:57;5.90;99.90
17687;DHT22;8962;52.538;13.266;2023-11-21T04:41:25;5.90;99.90
17687;DHT22;8962;52.538;13.266;2023-11-21T04:43:52;5.80;99.90
17687;DHT22;8962;52.538;13.266;2023-11-21T04:46:20;5.80;99.90
17687;DHT22;8962;52.538;13.266;2023-11-21T04:48:47;5.90;99.90
17687;DHT22;8962;52.538;13.266;2023-11-21T04:51:14;5.90;99.90
17687;DHT22;8962;52.538;13.266;2023-11-21T04:53:41;5.80;99.90
17687;DHT22;8962;52.538;13.266;2023-11-21T04:56:10;5.80;99.90
17687;DHT22;8962;52.538;13.266;2023-11-21T04:58:38;5.70;99.90
17687;DHT22;8962;52.538;13.266;2023-11-21T05:01:07;5.70;99.90
17687;DHT22;8962;52.538;13.266;2023-11-21T05:03:34;5.70;99.90
17687;DHT22;8962;52.538;13.266;2023-11-21T05:06:05;5.70;99.90
17687;DHT22;8962;52.538;13.266;2023-11-21T05:08:32;5.70;99.90
17687;DHT22;8962;52.538;13.266;2023-11-21T05:10:59;5.70;99.90
17687;DHT22;8962;52.538;13.266;2023-11-21T05:13:26;5.70;99.90
17687;DHT22;8962;52.538;13.266;2023-11-21T05:15:55;5.80;99.90
17687;DHT22;8962;52.538;13.266;2023-11-21T05:18:23;5.70;99.90
17687;DHT22;8962;52.538;13.266;2023-11-21T05:20:52;5.60;99.90
17687;DHT22;8962;52.538;13.266;2023-11-21T05:23:19;5.70;99.90
17687;DHT22;8962;52.538;13.266;2023-11-21T05:25:47;5.60;99.90
17687;DHT22;8962;52.538;13.266;2023-11-21T05:28:14;5.60;99.90
17687;DHT22;8962;52.538;13.266;2023-11-21T05:30:41;5.50;99.90
17687;DHT22;8962;52.538;13.266;2023-11-21T05:33:11;5.60;99.90
17687;DHT22;8962;52.538;13.266;2023-11-21T05:35:37;5.60;99.90
17687;DHT22;8962;52.538;13.266;2023-11-21T05:38:05;5.60;99.90
17687;DHT22;8962;52.538;13.266;2023-11-21T05:40:32;5.60;99.90
17687;DHT22;8962;52.538;13.266;2023-11-21T05:42:59;5.60;99.90
17687;DHT22;8962;52.538;13.266;2023-11-21T05:45:26;5.60;99.90
17687;DHT22;8962;52.538;13.266;2023-11-21T05:47:54;5.50;99.90
17687;DHT22;8962;52.538;13.266;2023-11-21T05:50:23;5.50;99.90
17687;DHT22;8962;52.538;13.266;2023-11-21T05:52:51;5.50;99.90
17687;DHT22;8962;52.538;13.266;2023-11-21T05:55:18;5.50;99.90
17687;DHT22;8962;52.538;13.266;2023-11-21T05:57:46;5.50;99.90
17687;DHT22;8962;52.538;13.266;2023-11-21T06:00:15;5.50;99.90
17687;DHT22;8962;52.538;13.266;2023-11-21T06:02:45;5.50;99.90
17687;DHT22;8962;52.538;13.266;2023-11-21T06:05:12;5.40;99.90
17687;DHT22;8962;52.538;13.266;2023-11-21T06:07:41;5.30;99.90
17687;DHT22;8962;52.538;13.266;2023-11-21T06:10:10;5.40;99.90
17687;DHT22;8962;52.538;13.266;2023-11-21T06:12:38;5.50;99.90
17687;DHT22;8962;52.538;13.266;2023-11-21T06:15:10;5.40;99.90
17687;DHT22;8962;52.538;13.266;2023-11-21T06:17:39;5.50;99.90
17687;DHT22;8962;52.538;13.266;2023-11-21T06:20:08;5.40;99.90
17687;DHT22;8962;52.538;13.266;2023-11-21T06:22:36;5.40;99.90
17687;DHT22;8962;52.538;13.266;2023-11-21T06:25:06;5.40;99.90
17687;DHT22;8962;52.538;13.266;2023-11-21T06:27:37;5.40;99.90
17687;DHT22;8962;52.538;13.266;2023-11-21T06:30:06;5.30;99.90
17687;DHT22;8962;52.538;13.266;2023-11-21T06:32:36;5.40;99.90
17687;DHT22;8962;52.538;13.266;2023-11-21T06:35:05;5.40;99.90
17687;DHT22;8962;52.538;13.266;2023-11-21T06:37:34;5.40;99.90
17687;DHT22;8962;52.538;13.266;2023-11-21T06:40:01;5.50;99.90
17687;DHT22;8962;52.538;13.266;2023-11-21T06:42:31;5.50;99.90
17687;DHT22;8962;52.538;13.266;2023-11-21T06:44:59;5.40;99.90
17687;DHT22;8962;52.538;13.266;2023-11-21T06:47:29;5.40;99.90
17687;DHT22;8962;52.538;13.266;2023-11-21T06:49:57;5.30;99.90
17687;DHT22;8962;52.538;13.266;2023-11-21T06:52:24;5.30;99.90
17687;DHT22;8962;52.538;13.266;2023-11-21T06:54:51;5.30;99.90
17687;DHT22;8962;52.538;13.266;2023-11-21T06:57:19;5.30;99.90
17687;DHT22;8962;52.538;13.266;2023-11-21T06:59:47;5.40;99.90
17687;DHT22;8962;52.538;13.266;2023-11-21T07:02:14;5.40;99.90
17687;DHT22;8962;52.538;13.266;2023-11-21T07:04:44;5.30;99.90
17687;DHT22;8962;52.538;13.266;2023-11-21T07:07:12;5.40;99.90
17687;DHT22;8962;52.538;13.266;2023-11-21T07:09:41;5.30;99.90
17687;DHT22;8962;52.538;13.266;2023-11-21T07:12:08;5.30;99.90
17687;DHT22;8962;52.538;13.266;2023-11-21T07:14:36;5.40;99.90
17687;DHT22;8962;52.538;13.266;2023-11-21T07:17:10;5.40;99.90
17687;DHT22;8962;52.538;13.266;2023-11-21T07:19:38;5.50;99.90
17687;DHT22;8962;52.538;13.266;2023-11-21T07:22:07;5.40;99.90
17687;DHT22;8962;52.538;13.266;2023-11-21T07:24:35;5.40;99.90
17687;DHT22;8962;52.538;13.266;2023-11-21T07:27:03;5.40;99.90
17687;DHT22;8962;52.538;13.266;2023-11-21T07:29:30;5.40;99.90
17687;DHT22;8962;52.538;13.266;2023-11-21T07:31:59;5.50;99.90
17687;DHT22;8962;52.538;13.266;2023-11-21T07:34:27;5.40;99.90
17687;DHT22;8962;52.538;13.266;2023-11-21T07:36:55;5.50;99.90
17687;DHT22;8962;52.538;13.266;2023-11-21T07:39:22;5.40;99.90
17687;DHT22;8962;52.538;13.266;2023-11-21T07:41:53;5.40;99.90
17687;DHT22;8962;52.538;13.266;2023-11-21T07:44:20;5.50;99.90
17687;DHT22;8962;52.538;13.266;2023-11-21T07:46:48;5.40;99.90
17687;DHT22;8962;52.538;13.266;2023-11-21T07:49:17;5.50;99.90
17687;DHT22;8962;52.538;13.266;2023-11-21T07:51:47;5.40;99.90
17687;DHT22;8962;52.538;13.266;2023-11-21T07:54:16;5.50;99.90
17687;DHT22;8962;52.538;13.266;2023-11-21T07:56:43;5.70;99.90
17687;DHT22;8962;52.538;13.266;2023-11-21T07:59:13;5.70;99.90
17687;DHT22;8962;52.538;13.266;2023-11-21T08:01:40;5.70;99.90
17687;DHT22;8962;52.538;13.266;2023-11-21T08:04:10;5.60;98.20
17687;DHT22;8962;52.538;13.266;2023-11-21T08:06:38;5.50;99.90
17687;DHT22;8962;52.538;13.266;2023-11-21T08:09:09;5.50;99.60
17687;DHT22;8962;52.538;13.266;2023-11-21T08:11:38;5.60;99.90
17687;DHT22;8962;52.538;13.266;2023-11-21T08:14:05;5.50;99.90
17687;DHT22;8962;52.538;13.266;2023-11-21T08:16:32;5.50;99.90
17687;DHT22;8962;52.538;13.266;2023-11-21T08:18:59;5.40;99.90
17687;DHT22;8962;52.538;13.266;2023-11-21T08:21:27;5.40;99.90
17687;DHT22;8962;52.538;13.266;2023-11-21T08:23:54;5.50;99.90
17687;DHT22;8962;52.538;13.266;2023-11-21T08:26:23;5.50;99.90
17687;DHT22;8962;52.538;13.266;2023-11-21T08:28:51;5.50;99.90
17687;DHT22;8962;52.538;13.266;2023-11-21T08:31:24;5.40;99.90
17687;DHT22;8962;52.538;13.266;2023-11-21T08:33:54;5.50;99.90
17687;DHT22;8962;52.538;13.266;2023-11-21T08:36:26;5.40;99.90
17687;DHT22;8962;52.538;13.266;2023-11-21T08:38:58;5.40;99.90
17687;DHT22;8962;52.538;13.266;2023-11-21T08:41:26;5.40;99.90
17687;DHT22;8962;52.538;13.266;2023-11-21T08:43:53;5.40;99.90
17687;DHT22;8962;52.538;13.266;2023-11-21T08:46:21;5.30;99.90
17687;DHT22;8962;52.538;13.266;2023-11-21T08:48:48;5.30;99.90
17687;DHT22;8962;52.538;13.266;2023-11-21T08:51:18;5.30;99.90
17687;DHT22;8962;52.538;13.266;2023-11-21T08:53:46;5.50;99.90
17687;DHT22;8962;52.538;13.266;2023-11-21T08:56:15;5.40;99.90
17687;DHT22;8962;52.538;13.266;2023-11-21T08:58:45;5.50;99.90
17687;DHT22;8962;52.538;13.266;2023-11-21T09:01:13;5.50;99.90
17687;DHT22;8962;52.538;13.266;2023-11-21T09:03:40;5.40;99.90
17687;DHT22;8962;52.538;13.266;2023-11-21T09:06:09;5.40;99.90
17687;DHT22;8962;52.538;13.266;2023-11-21T09:08:36;5.30;99.90
17687;DHT22;8962;52.538;13.266;2023-11-21T09:11:04;5.30;99.90
17687;DHT22;8962;52.538;13.266;2023-11-21T09:13:31;5.30;99.90
17687;DHT22;8962;52.538;13.266;2023-11-21T09:15:59;5.30;99.90
17687;DHT22;8962;52.538;13.266;2023-11-21T09:18:26;5.20;99.90
17687;DHT22;8962;52.538;13.266;2023-11-21T09:20:53;5.20;99.90
17687;DHT22;8962;52.538;13.266;2023-11-21T09:23:21;5.20;99.90
17687;DHT22;8962;52.538;13.266;2023-11-21T09:25:48;5.30;99.90
17687;DHT22;8962;52.538;13.266;2023-11-21T09:28:16;5.30;99.90
17687;DHT22;8962;52.538;13.266;2023-11-21T09:30:43;5.30;99.90
17687;DHT22;8962;52.538;13.266;2023-11-21T09:33:12;5.50;99.90
17687;DHT22;8962;52.538;13.266;2023-11-21T09:35:39;5.50;99.90
17687;DHT22;8962;52.538;13.266;2023-11-21T09:38:06;5.50;99.90
17687;DHT22;8962;52.538;13.266;2023-11-21T09:40:36;5.50;99.90
17687;DHT22;8962;52.538;13.266;2023-11-21T09:43:06;5.50;99.90
17687;DHT22;8962;52.538;13.266;2023-11-21T09:45:45;5.40;99.90
17687;DHT22;8962;52.538;13.266;2023-11-21T09:48:14;5.40;99.90
17687;DHT22;8962;52.538;13.266;2023-11-21T09:50:43;5.50;99.90
17687;DHT22;8962;52.538;13.266;2023-11-21T09:53:16;5.50;99.90
17687;DHT22;8962;52.538;13.266;2023-11-21T09:55:48;5.70;99.90
17687;DHT22;8962;52.538;13.266;2023-11-21T09:58:17;5.70;99.90
17687;DHT22;8962;52.538;13.266;2023-11-21T10:00:45;5.80;99.90
17687;DHT22;8962;52.538;13.266;2023-11-21T10:03:15;5.80;99.90
17687;DHT22;8962;52.538;13.266;2023-11-21T10:05:42;5.90;99.90
17687;DHT22;8962;52.538;13.266;2023-11-21T10:08:12;5.70;99.70
17687;DHT22;8962;52.538;13.266;2023-11-21T10:10:43;5.70;99.00
17687;DHT22;8962;52.538;13.266;2023-11-21T10:13:12;5.60;99.90
17687;DHT22;8962;52.538;13.266;2023-11-21T10:15:42;5.60;99.90
17687;DHT22;8962;52.538;13.266;2023-11-21T10:18:16;5.60;99.90
17687;DHT22;8962;52.538;13.266;2023-11-21T10:20:43;5.60;99.90
17687;DHT22;8962;52.538;13.266;2023-11-21T10:23:18;5.50;99.90
17687;DHT22;8962;52.538;13.266;2023-11-21T10:25:47;5.30;99.90
17687;DHT22;8962;52.538;13.266;2023-11-21T10:28:15;5.10;99.90
17687;DHT22;8962;52.538;13.266;2023-11-21T10:30:42;5.20;99.90
17687;DHT22;8962;52.538;13.266;2023-11-21T10:33:10;5.20;99.90
17687;DHT22;8962;52.538;13.266;2023-11-21T10:35:44;5.30;99.90
17687;DHT22;8962;52.538;13.266;2023-11-21T10:38:16;5.30;99.90
17687;DHT22;8962;52.538;13.266;2023-11-21T10:40:44;5.30;99.90
17687;DHT22;8962;52.538;13.266;2023-11-21T10:43:13;5.30;99.90
17687;DHT22;8962;52.538;13.266;2023-11-21T10:45:41;5.40;99.90
17687;DHT22;8962;52.538;13.266;2023-11-21T10:48:11;5.30;99.90
17687;DHT22;8962;52.538;13.266;2023-11-21T10:50:42;5.30;99.90
17687;DHT22;8962;52.538;13.266;2023-11-21T10:53:11;5.20;99.90
17687;DHT22;8962;52.538;13.266;2023-11-21T10:55:38;5.20;99.90
17687;DHT22;8962;52.538;13.266;2023-11-21T10:58:06;5.20;99.90
17687;DHT22;8962;52.538;13.266;2023-11-21T11:00:37;5.00;99.90
17687;DHT22;8962;52.538;13.266;2023-11-21T11:03:06;5.00;99.90
17687;DHT22;8962;52.538;13.266;2023-11-21T11:05:41;5.10;99.90
17687;DHT22;8962;52.538;13.266;2023-11-21T11:08:16;5.00;99.90
17687;DHT22;8962;52.538;13.266;2023-11-21T11:10:45;5.10;99.90
17687;DHT22;8962;52.538;13.266;2023-11-21T11:13:15;5.10;99.90
17687;DHT22;8962;52.538;13.266;2023-11-21T11:15:42;5.10;99.90
17687;DHT22;8962;52.538;13.266;2023-11-21T11:18:12;5.10;99.90
17687;DHT22;8962;52.538;13.266;2023-11-21T11:20:40;5.00;99.90
17687;DHT22;8962;52.538;13.266;2023-11-21T11:23:22;5.00;99.90
17687;DHT22;8962;52.538;13.266;2023-11-21T11:26:06;4.90;99.90
17687;DHT22;8962;52.538;13.266;2023-11-21T11:28:41;4.80;99.90
17687;DHT22;8962;52.538;13.266;2023-11-21T11:31:18;4.80;99.90
17687;DHT22;8962;52.538;13.266;2023-11-21T11:33:56;4.70;99.90
17687;DHT22;8962;52.538;13.266;2023-11-21T11:36:28;4.60;99.90
17687;DHT22;8962;52.538;13.266;2023-11-21T11:38:58;4.60;99.90
17687;DHT22;8962;52.538;13.266;2023-11-21T11:41:30;4.60;99.90
17687;DHT22;8962;52.538;13.266;2023-11-21T11:44:01;4.60;99.90
17687;DHT22;8962;52.538;13.266;2023-11-21T11:46:46;4.60;99.90
17687;DHT22;8962;52.538;13.266;2023-11-21T11:49:23;4.60;99.90
17687;DHT22;8962;52.538;13.266;2023-11-21T11:54:55;4.70;99.90
17687;DHT22;8962;52.538;13.266;2023-11-21T11:57:24;4.60;99.90
17687;DHT22;8962;52.538;13.266;2023-11-21T12:00:16;4.70;99.90
17687;DHT22;8962;52.538;13.266;2023-11-21T12:02:47;4.70;99.90
17687;DHT22;8962;52.538;13.266;2023-11-21T12:05:15;4.70;99.90
17687;DHT22;8962;52.538;13.266;2023-11-21T12:07:48;4.60;99.90
17687;DHT22;8962;52.538;13.266;2023-11-21T12:10:20;4.70;99.90
17687;DHT22;8962;52.538;13.266;2023-11-21T12:12:51;4.90;99.90
17687;DHT22;8962;52.538;13.266;2023-11-21T12:15:20;5.00;99.90
17687;DHT22;8962;52.538;13.266;2023-11-21T12:17:48;5.00;99.90
17687;DHT22;8962;52.538;13.266;2023-11-21T12:20:19;4.90;99.90
17687;DHT22;8962;52.538;13.266;2023-11-21T12:22:48;5.00;99.90
17687;DHT22;8962;52.538;13.266;2023-11-21T12:25:22;4.80;99.90
17687;DHT22;8962;52.538;13.266;2023-11-21T12:27:51;4.80;99.90
17687;DHT22;8962;52.538;13.266;2023-11-21T12:30:20;4.60;99.90
17687;DHT22;8962;52.538;13.266;2023-11-21T12:32:49;4.70;99.90
17687;DHT22;8962;52.538;13.266;2023-11-21T12:35:18;4.70;99.90
17687;DHT22;8962;52.538;13.266;2023-11-21T12:37:47;4.70;99.90
17687;DHT22;8962;52.538;13.266;2023-11-21T12:40:15;4.70;99.90
17687;DHT22;8962;52.538;13.266;2023-11-21T12:42:45;4.80;99.90
17687;DHT22;8962;52.538;13.266;2023-11-21T12:45:22;4.80;99.90
17687;DHT22;8962;52.538;13.266;2023-11-21T12:47:53;5.00;99.90
17687;DHT22;8962;52.538;13.266;2023-11-21T12:50:21;4.90;99.90
17687;DHT22;8962;52.538;13.266;2023-11-21T12:52:52;5.00;99.90
17687;DHT22;8962;52.538;13.266;2023-11-21T12:55:24;4.90;99.90
17687;DHT22;8962;52.538;13.266;2023-11-21T12:57:55;4.80;99.90
17687;DHT22;8962;52.538;13.266;2023-11-21T13:00:29;4.80;99.90
17687;DHT22;8962;52.538;13.266;2023-11-21T13:03:00;4.80;99.90
17687;DHT22;8962;52.538;13.266;2023-11-21T13:05:29;4.80;99.90
17687;DHT22;8962;52.538;13.266;2023-11-21T13:07:58;4.60;99.90
17687;DHT22;8962;52.538;13.266;2023-11-21T13:10:31;4.50;99.90
17687;DHT22;8962;52.538;13.266;2023-11-21T13:13:04;4.50;99.90
17687;DHT22;8962;52.538;13.266;2023-11-21T13:15:34;4.40;99.90
17687;DHT22;8962;52.538;13.266;2023-11-21T13:18:02;4.40;99.90
17687;DHT22;8962;52.538;13.266;2023-11-21T13:20:29;4.40;99.90
17687;DHT22;8962;52.538;13.266;2023-11-21T13:23:00;4.50;99.90
17687;DHT22;8962;52.538;13.266;2023-11-21T13:25:28;4.30;99.90
17687;DHT22;8962;52.538;13.266;2023-11-21T13:27:57;4.30;99.90
17687;DHT22;8962;52.538;13.266;2023-11-21T13:30:26;4.30;99.90
17687;DHT22;8962;52.538;13.266;2023-11-21T13:32:59;4.30;99.90
17687;DHT22;8962;52.538;13.266;2023-11-21T13:35:28;4.20;99.90
17687;DHT22;8962;52.538;13.266;2023-11-21T13:38:04;4.20;99.90
17687;DHT22;8962;52.538;13.266;2023-11-21T13:40:33;4.30;99.90
17687;DHT22;8962;52.538;13.266;2023-11-21T13:43:05;4.10;99.90
17687;DHT22;8962;52.538;13.266;2023-11-21T13:45:38;4.10;99.90
17687;DHT22;8962;52.538;13.266;2023-11-21T13:48:07;4.10;99.90
17687;DHT22;8962;52.538;13.266;2023-11-21T13:50:36;4.20;99.90
17687;DHT22;8962;52.538;13.266;2023-11-21T13:53:03;4.10;99.90
17687;DHT22;8962;52.538;13.266;2023-11-21T13:55:36;4.10;99.90
17687;DHT22;8962;52.538;13.266;2023-11-21T13:58:05;4.00;99.90
17687;DHT22;8962;52.538;13.266;2023-11-21T14:00:38;3.90;99.90
17687;DHT22;8962;52.538;13.266;2023-11-21T14:03:11;4.00;99.90
17687;DHT22;8962;52.538;13.266;2023-11-21T14:05:46;4.00;99.90
17687;DHT22;8962;52.538;13.266;2023-11-21T14:08:18;3.90;99.90
17687;DHT22;8962;52.538;13.266;2023-11-21T14:10:54;3.90;99.90
17687;DHT22;8962;52.538;13.266;2023-11-21T14:13:23;3.90;99.90
17687;DHT22;8962;52.538;13.266;2023-11-21T14:15:52;3.90;99.90
17687;DHT22;8962;52.538;13.266;2023-11-21T14:18:23;3.80;99.90
17687;DHT22;8962;52.538;13.266;2023-11-21T14:20:56;3.80;99.90
17687;DHT22;8962;52.538;13.266;2023-11-21T14:23:23;3.70;99.90
17687;DHT22;8962;52.538;13.266;2023-11-21T14:25:50;3.70;99.90
17687;DHT22;8962;52.538;13.266;2023-11-21T14:28:20;3.60;99.90
17687;DHT22;8962;52.538;13.266;2023-11-21T14:30:48;3.60;99.90
17687;DHT22;8962;52.538;13.266;2023-11-21T14:33:17;3.50;99.90
17687;DHT22;8962;52.538;13.266;2023-11-21T14:35:44;3.50;99.90
17687;DHT22;8962;52.538;13.266;2023-11-21T14:38:12;3.50;99.90
17687;DHT22;8962;52.538;13.266;2023-11-21T14:40:40;3.40;99.90
17687;DHT22;8962;52.538;13.266;2023-11-21T14:43:08;3.40;99.90
17687;DHT22;8962;52.538;13.266;2023-11-21T14:45:36;3.50;99.90
17687;DHT22;8962;52.538;13.266;2023-11-21T14:48:04;3.40;99.90
17687;DHT22;8962;52.538;13.266;2023-11-21T14:50:43;3.30;99.90
17687;DHT22;8962;52.538;13.266;2023-11-21T14:53:32;3.30;99.90
17687;DHT22;8962;52.538;13.266;2023-11-21T14:56:09;3.40;99.90
17687;DHT22;8962;52.538;13.266;2023-11-21T14:58:47;3.40;99.90
17687;DHT22;8962;52.538;13.266;2023-11-21T15:01:14;3.40;99.90
17687;DHT22;8962;52.538;13.266;2023-11-21T15:03:52;3.40;99.90
17687;DHT22;8962;52.538;13.266;2023-11-21T15:06:22;3.40;99.90
17687;DHT22;8962;52.538;13.266;2023-11-21T15:08:56;3.30;99.90
17687;DHT22;8962;52.538;13.266;2023-11-21T15:11:55;3.30;99.90
17687;DHT22;8962;52.538;13.266;2023-11-21T15:14:29;3.30;99.90
17687;DHT22;8962;52.538;13.266;2023-11-21T15:16:57;3.20;99.90
17687;DHT22;8962;52.538;13.266;2023-11-21T15:19:25;3.30;99.90
17687;DHT22;8962;52.538;13.266;2023-11-21T15:21:56;3.30;99.90
17687;DHT22;8962;52.538;13.266;2023-11-21T15:24:24;3.20;99.90
17687;DHT22;8962;52.538;13.266;2023-11-21T15:26:51;3.20;99.90
17687;DHT22;8962;52.538;13.266;2023-11-21T15:29:19;3.20;99.90
17687;DHT22;8962;52.538;13.266;2023-11-21T15:31:47;3.20;99.80
17687;DHT22;8962;52.538;13.266;2023-11-21T15:34:14;3.20;98.90
17687;DHT22;8962;52.538;13.266;2023-11-21T15:36:41;3.30;99.60
17687;DHT22;8962;52.538;13.266;2023-11-21T15:39:18;3.20;96.70
17687;DHT22;8962;52.538;13.266;2023-11-21T15:41:48;3.30;96.10
17687;DHT22;8962;52.538;13.266;2023-11-21T15:44:16;3.30;97.20
17687;DHT22;8962;52.538;13.266;2023-11-21T15:46:43;3.30;96.00
17687;DHT22;8962;52.538;13.266;2023-11-21T15:49:10;3.30;94.20
17687;DHT22;8962;52.538;13.266;2023-11-21T15:51:39;3.20;94.60
17687;DHT22;8962;52.538;13.266;2023-11-21T15:54:09;3.30;96.90
17687;DHT22;8962;52.538;13.266;2023-11-21T15:56:38;3.20;95.40
17687;DHT22;8962;52.538;13.266;2023-11-21T15:59:05;3.30;95.00
17687;DHT22;8962;52.538;13.266;2023-11-21T16:01:33;3.20;98.70
17687;DHT22;8962;52.538;13.266;2023-11-21T16:04:08;3.20;99.30
17687;DHT22;8962;52.538;13.266;2023-11-21T16:06:36;3.20;99.90
17687;DHT22;8962;52.538;13.266;2023-11-21T16:09:05;3.20;99.90
17687;DHT22;8962;52.538;13.266;2023-11-21T16:11:43;3.30;99.70
17687;DHT22;8962;52.538;13.266;2023-11-21T16:14:10;3.20;96.40
17687;DHT22;8962;52.538;13.266;2023-11-21T16:16:37;3.20;96.70
17687;DHT22;8962;52.538;13.266;2023-11-21T16:19:05;3.10;93.80